sensor_id;sensor_type;location;lat;lon;timestamp;pressure;altitude;pressure_sealevel;temperature;humidity
5455;BME280;2750;49.050;9.250;2022-10-16T00:00:09;98610.81;;;19.29;94.43
5455;BME280;2750;49.050;9.250;2022-10-16T00:05:12;98611.13;;;19.56;93.08
5455;BME280;2750;49.050;9.250;2022-10-16T00:10:13;98605.78;;;19.67;92.60
5455;BME280;2750;49.050;9.250;2022-10-16T00:15:15;98606.03;;;19.54;92.62
5455;BME280;2750;49.050;9.250;2022-10-16T00:20:19;98595.97;;;19.79;92.04
5455;BME280;2750;49.050;9.250;2022-10-16T00:25:20;98596.06;;;19.68;92.04
5455;BME280;2750;49.050;9.250;2022-10-16T00:30:22;98584.59;;;19.18;93.66
5455;BME280;2750;49.050;9.250;2022-10-16T00:35:25;98603.53;;;18.91;94.85
5455;BME280;2750;49.050;9.250;2022-10-16T00:40:26;98601.75;;;19.12;94.05
5455;BME280;2750;49.050;9.250;2022-10-16T00:45:28;98616.22;;;19.27;93.70
5455;BME280;2750;49.050;9.250;2022-10-16T00:50:33;98609.59;;;19.53;92.57
5455;BME280;2750;49.050;9.250;2022-10-16T00:55:35;98614.47;;;19.58;92.47
5455;BME280;2750;49.050;9.250;2022-10-16T01:00:37;98618.25;;;19.65;92.06
5455;BME280;2750;49.050;9.250;2022-10-16T01:06:04;98613.47;;;19.49;93.02
5455;BME280;2750;49.050;9.250;2022-10-16T01:11:13;98603.22;;;19.56;92.49
5455;BME280;2750;49.050;9.250;2022-10-16T01:16:24;98613.19;;;19.52;92.33
5455;BME280;2750;49.050;9.250;2022-10-16T01:21:33;98617.22;;;19.47;92.92
5455;BME280;2750;49.050;9.250;2022-10-16T01:26:48;98599.59;;;19.47;92.03
5455;BME280;2750;49.050;9.250;2022-10-16T01:31:58;98588.53;;;19.33;92.59
5455;BME280;2750;49.050;9.250;2022-10-16T01:37:05;98605.44;;;19.30;93.30
5455;BME280;2750;49.050;9.250;2022-10-16T01:42:12;98613.38;;;19.40;92.62
5455;BME280;2750;49.050;9.250;2022-10-16T01:47:17;98619.84;;;19.47;92.34
5455;BME280;2750;49.050;9.250;2022-10-16T01:52:23;98616.81;;;19.31;93.09
5455;BME280;2750;49.050;9.250;2022-10-16T01:57:28;98616.50;;;19.45;92.52
5455;BME280;2750;49.050;9.250;2022-10-16T02:02:32;98612.81;;;19.36;92.61
5455;BME280;2750;49.050;9.250;2022-10-16T02:07:34;98608.41;;;19.67;91.55
5455;BME280;2750;49.050;9.250;2022-10-16T02:12:38;98600.91;;;19.63;91.78
5455;BME280;2750;49.050;9.250;2022-10-16T02:17:43;98596.53;;;19.73;91.22
5455;BME280;2750;49.050;9.250;2022-10-16T02:22:46;98616.53;;;19.54;91.79
5455;BME280;2750;49.050;9.250;2022-10-16T02:27:53;98608.72;;;19.74;91.36
5455;BME280;2750;49.050;9.250;2022-10-16T02:32:58;98617.91;;;19.49;91.88
5455;BME280;2750;49.050;9.250;2022-10-16T02:38:02;98614.50;;;19.68;91.64
5455;BME280;2750;49.050;9.250;2022-10-16T02:43:05;98605.03;;;19.55;91.82
5455;BME280;2750;49.050;9.250;2022-10-16T02:48:07;98611.28;;;19.54;91.77
5455;BME280;2750;49.050;9.250;2022-10-16T02:53:09;98618.59;;;19.51;91.81
5455;BME280;2750;49.050;9.250;2022-10-16T02:58:10;98616.56;;;19.64;91.43
5455;BME280;2750;49.050;9.250;2022-10-16T03:03:14;98613.66;;;19.58;91.30
5455;BME280;2750;49.050;9.250;2022-10-16T03:08:15;98629.91;;;19.72;91.39
5455;BME280;2750;49.050;9.250;2022-10-16T03:13:17;98624.53;;;19.74;90.87
5455;BME280;2750;49.050;9.250;2022-10-16T03:18:22;98624.34;;;19.66;91.74
5455;BME280;2750;49.050;9.250;2022-10-16T03:23:23;98621.19;;;19.72;90.97
5455;BME280;2750;49.050;9.250;2022-10-16T03:28:25;98624.19;;;19.67;91.06
5455;BME280;2750;49.050;9.250;2022-10-16T03:33:28;98630.69;;;19.63;91.23
5455;BME280;2750;49.050;9.250;2022-10-16T03:38:29;98621.97;;;19.63;90.84
5455;BME280;2750;49.050;9.250;2022-10-16T03:43:31;98634.16;;;19.64;91.35
5455;BME280;2750;49.050;9.250;2022-10-16T03:48:34;98635.75;;;19.45;92.14
5455;BME280;2750;49.050;9.250;2022-10-16T03:53:35;98632.56;;;19.82;89.97
5455;BME280;2750;49.050;9.250;2022-10-16T03:58:37;98635.06;;;19.74;90.08
5455;BME280;2750;49.050;9.250;2022-10-16T04:03:40;98633.03;;;19.56;90.73
5455;BME280;2750;49.050;9.250;2022-10-16T04:08:42;98633.09;;;19.66;90.13
5455;BME280;2750;49.050;9.250;2022-10-16T04:13:44;98638.25;;;19.77;89.82
5455;BME280;2750;49.050;9.250;2022-10-16T04:18:46;98643.78;;;19.74;90.08
5455;BME280;2750;49.050;9.250;2022-10-16T04:23:48;98650.78;;;19.85;89.77
5455;BME280;2750;49.050;9.250;2022-10-16T04:28:49;98647.88;;;19.97;89.25
5455;BME280;2750;49.050;9.250;2022-10-16T04:33:52;98647.41;;;19.52;90.88
5455;BME280;2750;49.050;9.250;2022-10-16T04:38:54;98655.50;;;19.61;90.83
5455;BME280;2750;49.050;9.250;2022-10-16T04:43:55;98668.03;;;19.78;90.11
5455;BME280;2750;49.050;9.250;2022-10-16T04:48:58;98679.38;;;19.69;90.10
5455;BME280;2750;49.050;9.250;2022-10-16T04:54:00;98671.94;;;19.74;89.96
5455;BME280;2750;49.050;9.250;2022-10-16T04:59:01;98676.66;;;19.80;89.43
5455;BME280;2750;49.050;9.250;2022-10-16T05:04:04;98682.03;;;19.78;89.31
5455;BME280;2750;49.050;9.250;2022-10-16T05:09:06;98682.31;;;20.05;88.70
5455;BME280;2750;49.050;9.250;2022-10-16T05:14:07;98683.69;;;20.00;88.53
5455;BME280;2750;49.050;9.250;2022-10-16T05:19:10;98687.28;;;19.48;90.24
5455;BME280;2750;49.050;9.250;2022-10-16T05:24:12;98692.72;;;19.46;91.15
5455;BME280;2750;49.050;9.250;2022-10-16T05:29:13;98682.84;;;19.69;89.35
5455;BME280;2750;49.050;9.250;2022-10-16T05:34:16;98693.69;;;20.06;88.90
5455;BME280;2750;49.050;9.250;2022-10-16T05:39:18;98689.72;;;19.61;90.01
5455;BME280;2750;49.050;9.250;2022-10-16T05:44:20;98693.56;;;19.77;89.49
5455;BME280;2750;49.050;9.250;2022-10-16T05:49:23;98683.06;;;19.87;89.10
5455;BME280;2750;49.050;9.250;2022-10-16T05:54:24;98689.41;;;19.54;90.26
5455;BME280;2750;49.050;9.250;2022-10-16T05:59:26;98697.38;;;19.64;90.30
5455;BME280;2750;49.050;9.250;2022-10-16T06:04:29;98704.41;;;19.84;89.07
5455;BME280;2750;49.050;9.250;2022-10-16T06:09:30;98722.84;;;19.63;89.73
5455;BME280;2750;49.050;9.250;2022-10-16T06:14:32;98726.22;;;19.33;91.83
5455;BME280;2750;49.050;9.250;2022-10-16T06:19:35;98716.16;;;19.38;91.39
5455;BME280;2750;49.050;9.250;2022-10-16T06:24:36;98721.97;;;19.53;90.80
5455;BME280;2750;49.050;9.250;2022-10-16T06:29:37;98717.69;;;19.82;90.10
5455;BME280;2750;49.050;9.250;2022-10-16T06:34:40;98706.81;;;19.66;90.71
5455;BME280;2750;49.050;9.250;2022-10-16T06:39:42;98715.38;;;19.89;90.00
5455;BME280;2750;49.050;9.250;2022-10-16T06:44:44;98725.63;;;19.62;90.33
5455;BME280;2750;49.050;9.250;2022-10-16T06:49:47;98740.66;;;19.50;91.16
5455;BME280;2750;49.050;9.250;2022-10-16T06:54:49;98750.03;;;20.15;89.54
5455;BME280;2750;49.050;9.250;2022-10-16T06:59:51;98757.34;;;20.32;87.79
5455;BME280;2750;49.050;9.250;2022-10-16T07:04:54;98767.94;;;20.51;86.92
5455;BME280;2750;49.050;9.250;2022-10-16T07:09:57;98776.38;;;20.85;86.38
5455;BME280;2750;49.050;9.250;2022-10-16T07:14:58;98782.78;;;20.92;85.85
5455;BME280;2750;49.050;9.250;2022-10-16T07:20:02;98785.00;;;21.06;84.34
5455;BME280;2750;49.050;9.250;2022-10-16T07:25:04;98788.66;;;21.43;84.25
5455;BME280;2750;49.050;9.250;2022-10-16T07:30:06;98797.97;;;21.28;84.16
5455;BME280;2750;49.050;9.250;2022-10-16T07:35:10;98789.75;;;21.12;84.69
5455;BME280;2750;49.050;9.250;2022-10-16T07:40:12;98796.31;;;21.27;84.46
5455;BME280;2750;49.050;9.250;2022-10-16T07:45:14;98792.44;;;21.22;84.66
5455;BME280;2750;49.050;9.250;2022-10-16T07:50:17;98791.38;;;20.94;85.57
5455;BME280;2750;49.050;9.250;2022-10-16T07:55:18;98797.00;;;20.70;86.10
5455;BME280;2750;49.050;9.250;2022-10-16T08:00:20;98806.22;;;20.15;87.92
5455;BME280;2750;49.050;9.250;2022-10-16T08:05:23;98807.38;;;20.52;86.88
5455;BME280;2750;49.050;9.250;2022-10-16T08:10:25;98820.72;;;20.61;87.43
5455;BME280;2750;49.050;9.250;2022-10-16T08:15:27;98820.56;;;21.02;85.70
5455;BME280;2750;49.050;9.250;2022-10-16T08:20:31;98820.56;;;21.02;86.06
5455;BME280;2750;49.050;9.250;2022-10-16T08:25:34;98825.50;;;21.55;83.86
5455;BME280;2750;49.050;9.250;2022-10-16T08:30:36;98832.03;;;21.99;82.99
5455;BME280;2750;49.050;9.250;2022-10-16T08:35:38;98835.44;;;22.37;81.88
5455;BME280;2750;49.050;9.250;2022-10-16T08:40:42;98840.19;;;22.98;80.31
5455;BME280;2750;49.050;9.250;2022-10-16T08:45:52;98847.84;;;23.01;79.22
5455;BME280;2750;49.050;9.250;2022-10-16T08:51:04;98851.75;;;22.97;79.42
5455;BME280;2750;49.050;9.250;2022-10-16T08:56:06;98849.03;;;23.34;79.52
5455;BME280;2750;49.050;9.250;2022-10-16T09:01:12;98834.66;;;23.19;78.89
5455;BME280;2750;49.050;9.250;2022-10-16T09:06:29;98842.78;;;23.53;78.17
5455;BME280;2750;49.050;9.250;2022-10-16T09:11:41;98848.56;;;22.94;79.34
5455;BME280;2750;49.050;9.250;2022-10-16T09:16:47;98849.50;;;23.02;79.93
5455;BME280;2750;49.050;9.250;2022-10-16T09:21:53;98850.47;;;23.28;78.69
5455;BME280;2750;49.050;9.250;2022-10-16T09:26:55;98873.16;;;23.04;80.09
5455;BME280;2750;49.050;9.250;2022-10-16T09:31:57;98875.81;;;23.04;79.99
5455;BME280;2750;49.050;9.250;2022-10-16T09:37:12;98882.03;;;22.85;80.64
5455;BME280;2750;49.050;9.250;2022-10-16T09:42:16;98897.66;;;23.43;78.85
5455;BME280;2750;49.050;9.250;2022-10-16T09:47:21;98907.56;;;25.14;75.17
5455;BME280;2750;49.050;9.250;2022-10-16T09:52:25;98893.66;;;27.06;68.93
5455;BME280;2750;49.050;9.250;2022-10-16T09:57:27;98897.38;;;28.13;66.38
5455;BME280;2750;49.050;9.250;2022-10-16T10:02:31;98906.53;;;30.50;60.82
5455;BME280;2750;49.050;9.250;2022-10-16T10:07:42;98903.84;;;30.50;60.41
5455;BME280;2750;49.050;9.250;2022-10-16T10:12:46;98912.78;;;29.07;63.12
5455;BME280;2750;49.050;9.250;2022-10-16T10:17:49;98900.88;;;29.74;61.87
5455;BME280;2750;49.050;9.250;2022-10-16T10:22:54;98924.41;;;29.43;63.10
5455;BME280;2750;49.050;9.250;2022-10-16T10:28:16;98912.25;;;28.82;63.65
5455;BME280;2750;49.050;9.250;2022-10-16T10:33:25;98912.59;;;29.23;62.71
5455;BME280;2750;49.050;9.250;2022-10-16T10:38:38;98917.50;;;29.19;63.03
5455;BME280;2750;49.050;9.250;2022-10-16T10:43:48;98928.09;;;28.31;65.34
5455;BME280;2750;49.050;9.250;2022-10-16T10:54:26;98920.16;;;28.75;63.85
5455;BME280;2750;49.050;9.250;2022-10-16T10:59:54;98921.69;;;28.55;62.98
5455;BME280;2750;49.050;9.250;2022-10-16T11:05:24;98914.66;;;28.39;64.89
5455;BME280;2750;49.050;9.250;2022-10-16T11:10:34;98906.63;;;28.25;65.70
5455;BME280;2750;49.050;9.250;2022-10-16T11:15:43;98918.25;;;28.69;64.69
5455;BME280;2750;49.050;9.250;2022-10-16T11:20:49;98909.41;;;28.46;64.03
5455;BME280;2750;49.050;9.250;2022-10-16T11:25:55;98909.28;;;28.91;64.33
5455;BME280;2750;49.050;9.250;2022-10-16T11:31:02;98901.47;;;28.90;63.91
5455;BME280;2750;49.050;9.250;2022-10-16T11:36:12;98892.00;;;28.35;65.59
5455;BME280;2750;49.050;9.250;2022-10-16T11:41:24;98878.28;;;28.53;64.16
5455;BME280;2750;49.050;9.250;2022-10-16T11:46:29;98892.47;;;28.39;64.03
5455;BME280;2750;49.050;9.250;2022-10-16T11:51:36;98903.72;;;28.49;64.10
5455;BME280;2750;49.050;9.250;2022-10-16T11:56:41;98903.88;;;27.87;65.20
5455;BME280;2750;49.050;9.250;2022-10-16T12:01:48;98914.03;;;28.15;66.42
5455;BME280;2750;49.050;9.250;2022-10-16T12:06:57;98904.88;;;28.69;64.11
5455;BME280;2750;49.050;9.250;2022-10-16T12:12:01;98897.19;;;29.25;62.61
5455;BME280;2750;49.050;9.250;2022-10-16T12:17:04;98903.84;;;30.01;60.79
5455;BME280;2750;49.050;9.250;2022-10-16T12:22:23;98902.06;;;30.35;58.94
5455;BME280;2750;49.050;9.250;2022-10-16T12:27:31;98891.28;;;31.25;59.34
5455;BME280;2750;49.050;9.250;2022-10-16T12:32:36;98891.31;;;31.99;56.61
5455;BME280;2750;49.050;9.250;2022-10-16T12:37:39;98895.25;;;32.10;54.52
5455;BME280;2750;49.050;9.250;2022-10-16T12:42:42;98885.75;;;32.60;55.21
5455;BME280;2750;49.050;9.250;2022-10-16T12:47:49;98886.00;;;33.98;52.82
5455;BME280;2750;49.050;9.250;2022-10-16T12:52:51;98888.88;;;34.28;52.94
5455;BME280;2750;49.050;9.250;2022-10-16T12:58:06;98884.94;;;32.07;54.19
5455;BME280;2750;49.050;9.250;2022-10-16T13:03:48;98890.38;;;31.05;56.44
5455;BME280;2750;49.050;9.250;2022-10-16T13:09:07;98893.69;;;30.73;56.99
5455;BME280;2750;49.050;9.250;2022-10-16T13:14:28;98892.88;;;30.45;57.33
5455;BME280;2750;49.050;9.250;2022-10-16T13:19:40;98902.91;;;29.72;58.78
5455;BME280;2750;49.050;9.250;2022-10-16T13:24:56;98917.41;;;29.99;59.52
5455;BME280;2750;49.050;9.250;2022-10-16T13:30:11;98916.34;;;29.58;61.09
5455;BME280;2750;49.050;9.250;2022-10-16T13:35:22;98911.69;;;29.66;60.86
5455;BME280;2750;49.050;9.250;2022-10-16T13:40:24;98904.94;;;29.34;62.00
5455;BME280;2750;49.050;9.250;2022-10-16T13:45:27;98909.44;;;29.49;61.06
5455;BME280;2750;49.050;9.250;2022-10-16T13:50:28;98913.03;;;29.26;60.44
5455;BME280;2750;49.050;9.250;2022-10-16T13:55:31;98912.03;;;29.42;60.36
5455;BME280;2750;49.050;9.250;2022-10-16T14:00:34;98912.59;;;29.23;59.45
5455;BME280;2750;49.050;9.250;2022-10-16T14:05:47;98905.53;;;28.86;60.77
5455;BME280;2750;49.050;9.250;2022-10-16T14:10:52;98904.28;;;28.59;62.25
5455;BME280;2750;49.050;9.250;2022-10-16T14:15:56;98905.09;;;28.60;61.56
5455;BME280;2750;49.050;9.250;2022-10-16T14:21:03;98906.38;;;28.34;62.55
5455;BME280;2750;49.050;9.250;2022-10-16T14:26:14;98904.97;;;28.24;62.12
5455;BME280;2750;49.050;9.250;2022-10-16T14:31:28;98901.34;;;27.94;62.95
5455;BME280;2750;49.050;9.250;2022-10-16T14:36:30;98906.38;;;27.66;64.32
5455;BME280;2750;49.050;9.250;2022-10-16T14:41:40;98910.72;;;27.67;64.49
5455;BME280;2750;49.050;9.250;2022-10-16T14:46:44;98910.41;;;28.08;62.67
5455;BME280;2750;49.050;9.250;2022-10-16T14:51:47;98918.78;;;28.04;62.53
5455;BME280;2750;49.050;9.250;2022-10-16T14:56:51;98910.69;;;28.35;62.48
5455;BME280;2750;49.050;9.250;2022-10-16T15:01:55;98909.56;;;28.30;63.84
5455;BME280;2750;49.050;9.250;2022-10-16T15:06:56;98918.72;;;28.35;69.40
5455;BME280;2750;49.050;9.250;2022-10-16T15:11:58;98918.44;;;28.45;67.75
5455;BME280;2750;49.050;9.250;2022-10-16T15:17:01;98913.53;;;28.34;64.48
5455;BME280;2750;49.050;9.250;2022-10-16T15:22:02;98911.09;;;28.47;64.70
5455;BME280;2750;49.050;9.250;2022-10-16T15:27:04;98906.41;;;28.12;64.78
5455;BME280;2750;49.050;9.250;2022-10-16T15:32:08;98920.72;;;27.65;66.12
5455;BME280;2750;49.050;9.250;2022-10-16T15:37:10;98915.16;;;27.05;68.30
5455;BME280;2750;49.050;9.250;2022-10-16T15:42:14;98907.88;;;26.83;69.68
5455;BME280;2750;49.050;9.250;2022-10-16T15:47:16;98913.41;;;27.28;69.79
5455;BME280;2750;49.050;9.250;2022-10-16T15:52:18;98909.78;;;28.43;69.46
5455;BME280;2750;49.050;9.250;2022-10-16T15:57:20;98917.69;;;28.74;68.83
5455;BME280;2750;49.050;9.250;2022-10-16T16:02:23;98925.25;;;28.70;68.83
5455;BME280;2750;49.050;9.250;2022-10-16T16:07:25;98916.56;;;28.31;69.61
5455;BME280;2750;49.050;9.250;2022-10-16T16:12:27;98913.75;;;27.56;70.87
5455;BME280;2750;49.050;9.250;2022-10-16T16:17:31;98924.03;;;26.81;72.71
5455;BME280;2750;49.050;9.250;2022-10-16T16:22:33;98921.28;;;26.10;74.65
5455;BME280;2750;49.050;9.250;2022-10-16T16:27:34;98918.81;;;25.50;76.44
5455;BME280;2750;49.050;9.250;2022-10-16T16:32:40;98930.16;;;25.10;76.96
5455;BME280;2750;49.050;9.250;2022-10-16T16:37:42;98928.56;;;24.66;78.44
5455;BME280;2750;49.050;9.250;2022-10-16T16:42:44;98934.25;;;24.27;79.65
5455;BME280;2750;49.050;9.250;2022-10-16T16:47:47;98934.56;;;23.89;79.86
5455;BME280;2750;49.050;9.250;2022-10-16T16:52:48;98942.88;;;23.76;80.41
5455;BME280;2750;49.050;9.250;2022-10-16T16:57:50;98952.63;;;23.31;81.53
5455;BME280;2750;49.050;9.250;2022-10-16T17:02:53;98964.34;;;23.01;82.82
5455;BME280;2750;49.050;9.250;2022-10-16T17:07:54;98965.00;;;22.76;83.47
5455;BME280;2750;49.050;9.250;2022-10-16T17:12:56;98971.13;;;22.57;84.09
5455;BME280;2750;49.050;9.250;2022-10-16T17:17:58;98971.59;;;22.14;85.30
5455;BME280;2750;49.050;9.250;2022-10-16T17:23:00;98976.72;;;22.25;84.36
5455;BME280;2750;49.050;9.250;2022-10-16T17:28:02;98981.19;;;22.25;84.05
5455;BME280;2750;49.050;9.250;2022-10-16T17:33:05;98990.94;;;22.15;84.02
5455;BME280;2750;49.050;9.250;2022-10-16T17:38:07;98983.13;;;22.13;84.96
5455;BME280;2750;49.050;9.250;2022-10-16T17:43:09;98998.50;;;21.89;84.96
5455;BME280;2750;49.050;9.250;2022-10-16T17:48:12;98998.91;;;21.75;85.39
5455;BME280;2750;49.050;9.250;2022-10-16T17:53:13;98994.03;;;21.61;85.19
5455;BME280;2750;49.050;9.250;2022-10-16T17:58:15;99006.72;;;21.27;86.61
5455;BME280;2750;49.050;9.250;2022-10-16T18:03:18;99013.25;;;21.32;86.40
5455;BME280;2750;49.050;9.250;2022-10-16T18:08:19;99018.53;;;21.32;85.63
5455;BME280;2750;49.050;9.250;2022-10-16T18:13:21;99016.56;;;21.25;86.29
5455;BME280;2750;49.050;9.250;2022-10-16T18:18:24;99020.13;;;21.14;86.43
5455;BME280;2750;49.050;9.250;2022-10-16T18:23:26;99027.09;;;21.15;85.92
5455;BME280;2750;49.050;9.250;2022-10-16T18:28:27;99027.94;;;21.16;86.11
5455;BME280;2750;49.050;9.250;2022-10-16T18:33:31;99025.75;;;21.10;85.79
5455;BME280;2750;49.050;9.250;2022-10-16T18:38:34;99032.94;;;20.98;85.89
5455;BME280;2750;49.050;9.250;2022-10-16T18:43:37;99037.41;;;20.77;87.97
5455;BME280;2750;49.050;9.250;2022-10-16T18:48:40;99047.03;;;20.67;88.58
5455;BME280;2750;49.050;9.250;2022-10-16T18:53:43;99035.63;;;20.66;87.94
5455;BME280;2750;49.050;9.250;2022-10-16T18:58:46;99033.31;;;20.52;88.29
5455;BME280;2750;49.050;9.250;2022-10-16T19:03:52;99049.72;;;20.56;87.36
5455;BME280;2750;49.050;9.250;2022-10-16T19:08:55;99051.47;;;20.66;87.13
5455;BME280;2750;49.050;9.250;2022-10-16T19:13:57;99048.56;;;20.48;87.57
5455;BME280;2750;49.050;9.250;2022-10-16T19:19:02;99047.81;;;20.58;87.95
5455;BME280;2750;49.050;9.250;2022-10-16T19:24:05;99055.53;;;20.49;87.42
5455;BME280;2750;49.050;9.250;2022-10-16T19:29:07;99075.47;;;20.63;87.19
5455;BME280;2750;49.050;9.250;2022-10-16T19:34:10;99073.66;;;20.64;87.16
5455;BME280;2750;49.050;9.250;2022-10-16T19:39:13;99071.75;;;20.66;87.16
5455;BME280;2750;49.050;9.250;2022-10-16T19:44:16;99078.69;;;20.67;86.94
5455;BME280;2750;49.050;9.250;2022-10-16T19:49:19;99087.75;;;20.74;86.44
5455;BME280;2750;49.050;9.250;2022-10-16T19:54:21;99084.72;;;20.78;85.82
5455;BME280;2750;49.050;9.250;2022-10-16T19:59:22;99092.00;;;20.65;86.19
5455;BME280;2750;49.050;9.250;2022-10-16T20:04:25;99103.31;;;20.56;86.35
5455;BME280;2750;49.050;9.250;2022-10-16T20:09:27;99100.19;;;20.51;86.41
5455;BME280;2750;49.050;9.250;2022-10-16T20:14:28;99114.06;;;20.32;86.87
5455;BME280;2750;49.050;9.250;2022-10-16T20:19:31;99114.31;;;20.18;87.08
5455;BME280;2750;49.050;9.250;2022-10-16T20:24:33;99124.38;;;20.13;87.13
5455;BME280;2750;49.050;9.250;2022-10-16T20:29:34;99122.97;;;19.98;87.66
5455;BME280;2750;49.050;9.250;2022-10-16T20:34:37;99136.97;;;20.10;87.32
5455;BME280;2750;49.050;9.250;2022-10-16T20:39:39;99142.13;;;20.00;87.57
5455;BME280;2750;49.050;9.250;2022-10-16T20:44:40;99154.31;;;20.23;86.41
5455;BME280;2750;49.050;9.250;2022-10-16T20:49:43;99158.88;;;20.21;86.48
5455;BME280;2750;49.050;9.250;2022-10-16T20:54:45;99165.00;;;19.99;86.90
5455;BME280;2750;49.050;9.250;2022-10-16T20:59:47;99169.91;;;19.60;87.65
5455;BME280;2750;49.050;9.250;2022-10-16T21:04:51;99170.38;;;19.53;88.19
5455;BME280;2750;49.050;9.250;2022-10-16T21:09:54;99177.09;;;19.58;88.25
5455;BME280;2750;49.050;9.250;2022-10-16T21:14:56;99184.41;;;19.54;88.52
5455;BME280;2750;49.050;9.250;2022-10-16T21:19:58;99187.16;;;19.64;88.19
5455;BME280;2750;49.050;9.250;2022-10-16T21:25:00;99186.28;;;19.52;88.00
5455;BME280;2750;49.050;9.250;2022-10-16T21:30:02;99192.19;;;19.78;86.89
5455;BME280;2750;49.050;9.250;2022-10-16T21:35:06;99195.19;;;19.84;87.20
5455;BME280;2750;49.050;9.250;2022-10-16T21:40:08;99195.06;;;19.86;87.36
5455;BME280;2750;49.050;9.250;2022-10-16T21:45:10;99199.03;;;19.80;86.94
5455;BME280;2750;49.050;9.250;2022-10-16T21:50:13;99214.69;;;19.82;86.68
5455;BME280;2750;49.050;9.250;2022-10-16T21:55:14;99211.25;;;19.81;86.65
5455;BME280;2750;49.050;9.250;2022-10-16T22:00:16;99220.69;;;19.84;86.35
5455;BME280;2750;49.050;9.250;2022-10-16T22:05:19;99218.91;;;19.84;86.46
5455;BME280;2750;49.050;9.250;2022-10-16T22:10:20;99212.09;;;19.93;86.02
5455;BME280;2750;49.050;9.250;2022-10-16T22:15:22;99219.50;;;19.99;86.33
5455;BME280;2750;49.050;9.250;2022-10-16T22:20:25;99221.63;;;19.83;86.03
5455;BME280;2750;49.050;9.250;2022-10-16T22:25:26;99221.88;;;19.80;86.39
5455;BME280;2750;49.050;9.250;2022-10-16T22:30:28;99221.88;;;19.80;86.18
5455;BME280;2750;49.050;9.250;2022-10-16T22:35:35;99218.91;;;19.73;85.86
5455;BME280;2750;49.050;9.250;2022-10-16T22:40:37;99222.09;;;19.54;86.89
5455;BME280;2750;49.050;9.250;2022-10-16T22:45:39;99220.44;;;19.30;87.80
5455;BME280;2750;49.050;9.250;2022-10-16T22:50:42;99210.88;;;19.05;88.80
5455;BME280;2750;49.050;9.250;2022-10-16T22:55:43;99220.41;;;18.95;88.78
5455;BME280;2750;49.050;9.250;2022-10-16T23:00:45;99205.47;;;18.95;88.20
5455;BME280;2750;49.050;9.250;2022-10-16T23:05:47;99208.72;;;18.51;90.20
5455;BME280;2750;49.050;9.250;2022-10-16T23:10:49;99205.03;;;18.41;90.26
5455;BME280;2750;49.050;9.250;2022-10-16T23:15:50;99204.03;;;18.31;91.36
5455;BME280;2750;49.050;9.250;2022-10-16T23:20:53;99219.88;;;18.42;90.97
5455;BME280;2750;49.050;9.250;2022-10-16T23:25:55;99215.75;;;18.51;90.27
5455;BME280;2750;49.050;9.250;2022-10-16T23:30:56;99227.00;;;18.04;92.57
5455;BME280;2750;49.050;9.250;2022-10-16T23:36:03;99229.31;;;18.57;90.44
5455;BME280;2750;49.050;9.250;2022-10-16T23:41:05;99243.47;;;18.68;89.43
5455;BME280;2750;49.050;9.250;2022-10-16T23:46:09;99235.28;;;18.59;89.18
5455;BME280;2750;49.050;9.250;2022-10-16T23:51:12;99238.78;;;18.84;88.78
5455;BME280;2750;49.050;9.250;2022-10-16T23:56:14;99252.03;;;18.58;89.09
